Articles

Pooleys Chart - EITM

Share

Trim Flying Club Pooleys Chart for Trim Airfield

Share

Trim Flying Club goes to the Aran Islands

Learn to fly at Trim Flying Club

Rainfall Radar Now

Atlantic Charts Pressure - Today

Atlantic Charts Rainfall - Today

 
 

Atlantic Charts Pressure - Tomorrow

Sunrise Sunset

Click for Dublin, Ireland Forecast

Aviation WX Dublin EIDW

[source: ADDS]
METAR
EIDW 020600Z 02012KT 4000 +RA FEW003 BKN004 BKN010 13/12 Q1000 TEMPO BKN003 =
TAF
TAF EIDW 020500Z 0206/0306 04010KT 5000 RA BKN007 OVC016 TEMPO 0206/0212 2000 +RA BKN003 BECMG 0212/0214 35013KT 9999 -RA BKN010 BECMG 0218/0220 29014KT =